PWSweather.com
Personal Weather Stations
Station Observations
WHITEHV
Whitehorse, YK y1a5w5

Whitehorse, YK y1a5w5

Lat: 60.829, Lon: -135.194

Elevation: 2165

Station Type: DAVIS VANTAGE PRO 2

Latest ConditionsUpdated 8:00:01 PM PST Sunday, Dec 21, 2014
Currently Today's Max Today's Min Today's Average
Temperature 21.9°F-5.6°C 22.3°F-5.4°C 9.1°F-12.7°C 15.8°F-9.0°C
Dew Point 18.9°F-7.3°C 19.3°F-7.1°C 5.5°F-14.7°C 12.6°F-10.8°C
Winds 1.2 mph S1.9 kmh S 2.3 mph SE3.7 kmh SE - 0.6 mph 1.0 kmh
Wind Gusts 4.6 mph7.4 kmh 8.1 mph13.0 kmh - -
Humidity 88% 91% 85% 87%
Pressure 29.65 in1004.1 mb 29.65 in1004.1 mb 29.41 in995.9 mb -
Precipitation - 0.01 in0.3 mm - -
Hour Temp Dew Point Humidity Winds Wind Gusts Pressure Precip Precip Rate Daily Precip Total
08:00 PM 21.9°F-5.6°C 18.9°F-7.3°C 88% 1.2 mph S1.9 kmh S 4.6 mph7.4 kmh 29.65 in1004.1 mb 0.00 in0.0 mm 0.00 in/hr0.0 mm/hr 0.01 in0.3 mm
07:45 PM 21.9°F-5.6°C 18.9°F-7.3°C 88% 1.2 mph ESE1.9 kmh ESE 6.9 mph11.1 kmh 29.64 in1003.7 mb 0.00 in0.0 mm 0.00 in/hr0.0 mm/hr 0.01 in0.3 mm
07:30 PM 21.7°F-5.7°C 18.7°F-7.4°C 88% 2.3 mph ESE3.7 kmh ESE 5.8 mph9.3 kmh 29.63 in1003.4 mb 0.00 in0.0 mm 0.00 in/hr0.0 mm/hr 0.01 in0.3 mm
07:15 PM 21.7°F-5.7°C 18.7°F-7.4°C 88% 2.3 mph E3.7 kmh E 2.3 mph3.7 kmh 29.63 in1003.4 mb 0.00 in0.0 mm 0.00 in/hr0.0 mm/hr 0.01 in0.3 mm
07:00 PM 21.7°F-5.7°C 18.7°F-7.4°C 88% 1.2 mph SSE1.9 kmh SSE 5.8 mph9.3 kmh 29.63 in1003.4 mb 0.00 in0.0 mm 0.00 in/hr0.0 mm/hr 0.01 in0.3 mm
06:45 PM 21.7°F-5.7°C 18.7°F-7.4°C 88% 1.2 mph S1.9 kmh S 2.3 mph3.7 kmh 29.62 in1003.0 mb 0.00 in0.0 mm 0.00 in/hr0.0 mm/hr 0.01 in0.3 mm
06:30 PM 21.6°F-5.8°C 18.6°F-7.4°C 88% 1.2 mph W1.9 kmh W 5.8 mph9.3 kmh 29.62 in1003.0 mb 0.00 in0.0 mm 0.00 in/hr0.0 mm/hr 0.01 in0.3 mm
06:15 PM 21.6°F-5.8°C 18.6°F-7.4°C 88% 2.3 mph S3.7 kmh S 6.9 mph11.1 kmh 29.61 in1002.7 mb 0.00 in0.0 mm 0.00 in/hr0.0 mm/hr 0.01 in0.3 mm
06:00 PM 21.5°F-5.8°C 18.5°F-7.5°C 88% 1.2 mph SE1.9 kmh SE 8.1 mph13.0 kmh 29.61 in1002.7 mb 0.00 in0.0 mm 0.00 in/hr0.0 mm/hr 0.01 in0.3 mm
05:45 PM 21.5°F-5.8°C 18.5°F-7.5°C 88% 1.2 mph SSW1.9 kmh SSW 3.5 mph5.6 kmh 29.61 in1002.7 mb 0.00 in0.0 mm 0.00 in/hr0.0 mm/hr 0.01 in0.3 mm
05:30 PM 21.4°F-5.9°C 18.4°F-7.6°C 88% 1.2 mph S1.9 kmh S 4.6 mph7.4 kmh 29.60 in1002.4 mb 0.00 in0.0 mm 0.00 in/hr0.0 mm/hr 0.01 in0.3 mm
05:15 PM 21.4°F-5.9°C 18.4°F-7.6°C 88% 2.3 mph SE3.7 kmh SE 4.6 mph7.4 kmh 29.60 in1002.4 mb 0.00 in0.0 mm 0.00 in/hr0.0 mm/hr 0.01 in0.3 mm
05:00 PM 21.4°F-5.9°C 18.4°F-7.6°C 88% 2.3 mph S3.7 kmh S 4.6 mph7.4 kmh 29.59 in1002.0 mb 0.00 in0.0 mm 0.00 in/hr0.0 mm/hr 0.01 in0.3 mm
04:45 PM 21.3°F-5.9°C 18.3°F-7.6°C 88% 2.3 mph S3.7 kmh S 3.5 mph5.6 kmh 29.59 in1002.0 mb 0.00 in0.0 mm 0.00 in/hr0.0 mm/hr 0.01 in0.3 mm
04:30 PM 21.2°F-6.0°C 18.2°F-7.7°C 88% 2.3 mph S3.7 kmh S 5.8 mph9.3 kmh 29.59 in1002.0 mb 0.00 in0.0 mm 0.00 in/hr0.0 mm/hr 0.01 in0.3 mm
04:15 PM 21.0°F-6.1°C 18.0°F-7.8°C 88% 1.2 mph SE1.9 kmh SE 3.5 mph5.6 kmh 29.59 in1002.0 mb 0.00 in0.0 mm 0.00 in/hr0.0 mm/hr 0.01 in0.3 mm
04:00 PM 20.8°F-6.2°C 17.8°F-7.9°C 88% 1.2 mph SSW1.9 kmh SSW 2.3 mph3.7 kmh 29.60 in1002.4 mb 0.00 in0.0 mm 0.00 in/hr0.0 mm/hr 0.01 in0.3 mm
03:45 PM 20.8°F-6.2°C 17.5°F-8.1°C 87% 1.2 mph E1.9 kmh E 3.5 mph5.6 kmh 29.59 in1002.0 mb 0.00 in0.0 mm 0.00 in/hr0.0 mm/hr 0.01 in0.3 mm
03:30 PM 20.8°F-6.2°C 17.5°F-8.1°C 87% 1.2 mph S1.9 kmh S 1.2 mph1.9 kmh 29.59 in1002.0 mb 0.00 in0.0 mm 0.00 in/hr0.0 mm/hr 0.01 in0.3 mm
03:15 PM 20.8°F-6.2°C 17.6°F-8.0°C 87% 1.2 mph SW1.9 kmh SW 2.3 mph3.7 kmh 29.59 in1002.0 mb 0.00 in0.0 mm 0.00 in/hr0.0 mm/hr 0.01 in0.3 mm
03:00 PM 20.8°F-6.2°C 17.5°F-8.1°C 87% 1.2 mph SSE1.9 kmh SSE 5.8 mph9.3 kmh 29.58 in1001.7 mb 0.00 in0.0 mm 0.00 in/hr0.0 mm/hr 0.01 in0.3 mm
02:45 PM 21.0°F-6.1°C 17.5°F-8.1°C 86% 1.2 mph SE1.9 kmh SE 3.5 mph5.6 kmh 29.58 in1001.7 mb 0.00 in0.0 mm 0.00 in/hr0.0 mm/hr 0.01 in0.3 mm
02:30 PM 21.2°F-6.0°C 17.7°F-7.9°C 86% 2.3 mph ENE3.7 kmh ENE 4.6 mph7.4 kmh 29.58 in1001.7 mb 0.00 in0.0 mm 0.00 in/hr0.0 mm/hr 0.01 in0.3 mm
02:15 PM 21.7°F-5.7°C 18.1°F-7.7°C 86% 2.3 mph SE3.7 kmh SE 3.5 mph5.6 kmh 29.57 in1001.4 mb 0.00 in0.0 mm 0.00 in/hr0.0 mm/hr 0.01 in0.3 mm
02:00 PM 22.0°F-5.6°C 18.4°F-7.6°C 86% 1.2 mph SE1.9 kmh SE 4.6 mph7.4 kmh 29.57 in1001.4 mb 0.00 in0.0 mm 0.00 in/hr0.0 mm/hr 0.01 in0.3 mm
01:45 PM 22.1°F-5.5°C 18.6°F-7.4°C 86% 1.2 mph SSW1.9 kmh SSW 4.6 mph7.4 kmh 29.57 in1001.4 mb 0.00 in0.0 mm 0.00 in/hr0.0 mm/hr 0.01 in0.3 mm
01:30 PM 22.2°F-5.4°C 18.6°F-7.4°C 86% Calm Calm 1.2 mph1.9 kmh 29.57 in1001.4 mb 0.00 in0.0 mm 0.00 in/hr0.0 mm/hr 0.01 in0.3 mm
01:15 PM 22.2°F-5.4°C 18.9°F-7.3°C 87% Calm Calm 2.3 mph3.7 kmh 29.56 in1001.0 mb 0.00 in0.0 mm 0.00 in/hr0.0 mm/hr 0.01 in0.3 mm
01:00 PM 22.3°F-5.4°C 19.0°F-7.2°C 87% 1.2 mph SE1.9 kmh SE 4.6 mph7.4 kmh 29.55 in1000.7 mb 0.00 in0.0 mm 0.00 in/hr0.0 mm/hr 0.01 in0.3 mm
12:45 PM 22.3°F-5.4°C 19.3°F-7.1°C 88% 2.3 mph SE3.7 kmh SE 3.5 mph5.6 kmh 29.55 in1000.7 mb 0.00 in0.0 mm 0.00 in/hr0.0 mm/hr 0.01 in0.3 mm
12:30 PM 22.0°F-5.6°C 19.3°F-7.1°C 89% 1.2 mph N1.9 kmh N 3.5 mph5.6 kmh 29.55 in1000.7 mb 0.00 in0.0 mm 0.00 in/hr0.0 mm/hr 0.01 in0.3 mm
12:15 PM 21.8°F-5.7°C 19.0°F-7.2°C 89% 1.2 mph ENE1.9 kmh ENE 3.5 mph5.6 kmh 29.54 in1000.3 mb 0.00 in0.0 mm 0.00 in/hr0.0 mm/hr 0.01 in0.3 mm
12:00 PM 21.7°F-5.7°C 19.3°F-7.1°C 90% 1.2 mph ESE1.9 kmh ESE 2.3 mph3.7 kmh 29.54 in1000.3 mb 0.00 in0.0 mm 0.00 in/hr0.0 mm/hr 0.01 in0.3 mm
11:45 AM 21.6°F-5.8°C 19.1°F-7.2°C 90% Calm Calm 1.2 mph1.9 kmh 29.55 in1000.7 mb 0.00 in0.0 mm 0.00 in/hr0.0 mm/hr 0.01 in0.3 mm
11:30 AM 21.4°F-5.9°C 18.9°F-7.3°C 90% Calm Calm 2.3 mph3.7 kmh 29.55 in1000.7 mb 0.00 in0.0 mm 0.00 in/hr0.0 mm/hr 0.01 in0.3 mm
11:15 AM 20.5°F-6.4°C 18.3°F-7.6°C 91% 1.2 mph SE1.9 kmh SE 4.6 mph7.4 kmh 29.54 in1000.3 mb 0.00 in0.0 mm 0.00 in/hr0.0 mm/hr 0.01 in0.3 mm
11:00 AM 18.3°F-7.6°C 16.1°F-8.8°C 91% Calm Calm 1.2 mph1.9 kmh 29.54 in1000.3 mb 0.00 in0.0 mm 0.00 in/hr0.0 mm/hr 0.01 in0.3 mm
10:45 AM 14.1°F-9.9°C 11.7°F-11.3°C 90% Calm Calm 2.3 mph3.7 kmh 29.54 in1000.3 mb 0.01 in0.3 mm 0.04 in/hr1.0 mm/hr 0.01 in0.3 mm
10:30 AM 10.1°F-12.2°C 7.0°F-13.9°C 87% Calm Calm -- 29.53 in1000.0 mb 0.00 in0.0 mm 0.00 in/hr0.0 mm/hr 0.00 in0.0 mm
10:15 AM 9.4°F-12.6°C 6.0°F-14.4°C 86% Calm Calm -- 29.53 in1000.0 mb 0.00 in0.0 mm 0.00 in/hr0.0 mm/hr 0.00 in0.0 mm
10:00 AM 9.4°F-12.6°C 6.1°F-14.4°C 86% Calm Calm -- 29.53 in1000.0 mb 0.00 in0.0 mm 0.00 in/hr0.0 mm/hr 0.00 in0.0 mm
09:45 AM 9.4°F-12.6°C 5.8°F-14.6°C 85% Calm Calm -- 29.52 in999.7 mb 0.00 in0.0 mm 0.00 in/hr0.0 mm/hr 0.00 in0.0 mm
09:30 AM 9.7°F-12.4°C 6.1°F-14.4°C 85% Calm Calm 1.2 mph1.9 kmh 29.52 in999.7 mb 0.00 in0.0 mm 0.00 in/hr0.0 mm/hr 0.00 in0.0 mm
09:15 AM 9.8°F-12.3°C 6.5°F-14.2°C 86% Calm Calm -- 29.52 in999.7 mb 0.00 in0.0 mm 0.00 in/hr0.0 mm/hr 0.00 in0.0 mm
09:00 AM 9.9°F-12.3°C 6.6°F-14.1°C 86% Calm Calm -- 29.51 in999.3 mb 0.00 in0.0 mm 0.00 in/hr0.0 mm/hr 0.00 in0.0 mm
08:45 AM 10.1°F-12.2°C 6.7°F-14.1°C 86% Calm Calm -- 29.51 in999.3 mb 0.00 in0.0 mm 0.00 in/hr0.0 mm/hr 0.00 in0.0 mm
08:30 AM 10.1°F-12.2°C 6.8°F-14.0°C 86% Calm Calm -- 29.50 in999.0 mb 0.00 in0.0 mm 0.00 in/hr0.0 mm/hr 0.00 in0.0 mm
08:15 AM 10.2°F-12.1°C 6.8°F-14.0°C 86% Calm Calm -- 29.50 in999.0 mb 0.00 in0.0 mm 0.00 in/hr0.0 mm/hr 0.00 in0.0 mm
08:00 AM 10.4°F-12.0°C 7.0°F-13.9°C 86% Calm Calm -- 29.49 in998.6 mb 0.00 in0.0 mm 0.00 in/hr0.0 mm/hr 0.00 in0.0 mm
07:45 AM 10.5°F-11.9°C 6.9°F-13.9°C 85% Calm Calm -- 29.49 in998.6 mb 0.00 in0.0 mm 0.00 in/hr0.0 mm/hr 0.00 in0.0 mm
07:30 AM 10.8°F-11.8°C 7.2°F-13.8°C 85% Calm Calm -- 29.48 in998.3 mb 0.00 in0.0 mm 0.00 in/hr0.0 mm/hr 0.00 in0.0 mm
07:15 AM 11.1°F-11.6°C 7.7°F-13.5°C 86% Calm Calm -- 29.48 in998.3 mb 0.00 in0.0 mm 0.00 in/hr0.0 mm/hr 0.00 in0.0 mm
07:00 AM 11.6°F-11.3°C 8.2°F-13.2°C 86% Calm Calm -- 29.47 in998.0 mb 0.00 in0.0 mm 0.00 in/hr0.0 mm/hr 0.00 in0.0 mm
06:45 AM 11.9°F-11.2°C 8.5°F-13.1°C 86% Calm Calm -- 29.47 in998.0 mb 0.00 in0.0 mm 0.00 in/hr0.0 mm/hr 0.00 in0.0 mm
06:30 AM 12.0°F-11.1°C 8.6°F-13.0°C 86% Calm Calm -- 29.47 in998.0 mb 0.00 in0.0 mm 0.00 in/hr0.0 mm/hr 0.00 in0.0 mm
06:15 AM 12.2°F-11.0°C 8.8°F-12.9°C 86% Calm Calm -- 29.46 in997.6 mb 0.00 in0.0 mm 0.00 in/hr0.0 mm/hr 0.00 in0.0 mm
06:00 AM 12.4°F-10.9°C 9.2°F-12.7°C 87% Calm Calm -- 29.46 in997.6 mb 0.00 in0.0 mm 0.00 in/hr0.0 mm/hr 0.00 in0.0 mm
05:45 AM 12.5°F-10.8°C 9.4°F-12.6°C 87% Calm Calm -- 29.45 in997.3 mb 0.00 in0.0 mm 0.00 in/hr0.0 mm/hr 0.00 in0.0 mm
05:30 AM 12.5°F-10.8°C 9.4°F-12.6°C 87% Calm Calm -- 29.46 in997.6 mb 0.00 in0.0 mm 0.00 in/hr0.0 mm/hr 0.00 in0.0 mm
05:15 AM 12.5°F-10.8°C 9.4°F-12.6°C 87% Calm Calm -- 29.45 in997.3 mb 0.00 in0.0 mm 0.00 in/hr0.0 mm/hr 0.00 in0.0 mm
05:00 AM 12.5°F-10.8°C 9.4°F-12.6°C 87% Calm Calm -- 29.45 in997.3 mb 0.00 in0.0 mm 0.00 in/hr0.0 mm/hr 0.00 in0.0 mm
04:45 AM 12.5°F-10.8°C 9.4°F-12.6°C 87% Calm Calm -- 29.45 in997.3 mb 0.00 in0.0 mm 0.00 in/hr0.0 mm/hr 0.00 in0.0 mm
04:30 AM 12.4°F-10.9°C 9.2°F-12.7°C 87% Calm Calm -- 29.45 in997.3 mb 0.00 in0.0 mm 0.00 in/hr0.0 mm/hr 0.00 in0.0 mm
04:15 AM 12.1°F-11.1°C 9.0°F-12.8°C 87% Calm Calm -- 29.45 in997.3 mb 0.00 in0.0 mm 0.00 in/hr0.0 mm/hr 0.00 in0.0 mm
04:00 AM 11.8°F-11.2°C 8.7°F-12.9°C 87% Calm Calm -- 29.45 in997.3 mb 0.00 in0.0 mm 0.00 in/hr0.0 mm/hr 0.00 in0.0 mm
03:45 AM 11.5°F-11.4°C 8.4°F-13.1°C 87% Calm Calm -- 29.45 in997.3 mb 0.00 in0.0 mm 0.00 in/hr0.0 mm/hr 0.00 in0.0 mm
03:30 AM 11.1°F-11.6°C 8.0°F-13.3°C 87% Calm Calm -- 29.45 in997.3 mb 0.00 in0.0 mm 0.00 in/hr0.0 mm/hr 0.00 in0.0 mm
03:15 AM 10.8°F-11.8°C 7.7°F-13.5°C 87% Calm Calm -- 29.45 in997.3 mb 0.00 in0.0 mm 0.00 in/hr0.0 mm/hr 0.00 in0.0 mm
03:00 AM 10.5°F-11.9°C 7.1°F-13.8°C 86% Calm Calm -- 29.45 in997.3 mb 0.00 in0.0 mm 0.00 in/hr0.0 mm/hr 0.00 in0.0 mm
02:45 AM 10.2°F-12.1°C 6.9°F-13.9°C 86% Calm Calm -- 29.44 in997.0 mb 0.00 in0.0 mm 0.00 in/hr0.0 mm/hr 0.00 in0.0 mm
02:30 AM 9.8°F-12.3°C 6.5°F-14.2°C 86% Calm Calm -- 29.44 in997.0 mb 0.00 in0.0 mm 0.00 in/hr0.0 mm/hr 0.00 in0.0 mm
02:15 AM 9.6°F-12.4°C 6.3°F-14.3°C 86% Calm Calm -- 29.44 in997.0 mb 0.00 in0.0 mm 0.00 in/hr0.0 mm/hr 0.00 in0.0 mm
02:00 AM 9.3°F-12.6°C 6.0°F-14.4°C 86% Calm Calm -- 29.43 in996.6 mb 0.00 in0.0 mm 0.00 in/hr0.0 mm/hr 0.00 in0.0 mm
01:45 AM 9.2°F-12.7°C 5.6°F-14.7°C 85% Calm Calm -- 29.43 in996.6 mb 0.00 in0.0 mm 0.00 in/hr0.0 mm/hr 0.00 in0.0 mm
01:30 AM 9.1°F-12.7°C 5.5°F-14.7°C 85% Calm Calm -- 29.43 in996.6 mb 0.00 in0.0 mm 0.00 in/hr0.0 mm/hr 0.00 in0.0 mm
01:15 AM 9.1°F-12.7°C 5.5°F-14.7°C 85% Calm Calm -- 29.43 in996.6 mb 0.00 in0.0 mm 0.00 in/hr0.0 mm/hr 0.00 in0.0 mm
12:30 AM 9.6°F-12.4°C 6.0°F-14.4°C 85% Calm Calm -- 29.42 in996.3 mb 0.00 in0.0 mm 0.00 in/hr0.0 mm/hr 0.00 in0.0 mm
12:15 AM 9.8°F-12.3°C 6.2°F-14.3°C 85% Calm Calm -- 29.41 in995.9 mb 0.00 in0.0 mm 0.00 in/hr0.0 mm/hr 0.00 in0.0 mm
12:00 AM 10.2°F-12.1°C 6.6°F-14.1°C 85% Calm Calm -- 29.41 in995.9 mb 0.00 in0.0 mm 0.00 in/hr0.0 mm/hr 0.00 in0.0 mm